sensor_id;sensor_type;location;lat;lon;timestamp;pressure;altitude;pressure_sealevel;temperature;humidity
44457;BME280;30159;49.316;8.558;2023-02-22T00:01:15;100350.19;;;5.58;100.00
44457;BME280;30159;49.316;8.558;2023-02-22T00:03:52;100354.16;;;5.55;100.00
44457;BME280;30159;49.316;8.558;2023-02-22T00:06:21;100347.44;;;5.53;100.00
44457;BME280;30159;49.316;8.558;2023-02-22T00:08:51;100352.53;;;5.54;100.00
44457;BME280;30159;49.316;8.558;2023-02-22T00:11:18;100348.25;;;5.53;100.00
44457;BME280;30159;49.316;8.558;2023-02-22T00:13:45;100348.19;;;5.48;100.00
44457;BME280;30159;49.316;8.558;2023-02-22T00:16:16;100341.69;;;5.44;100.00
44457;BME280;30159;49.316;8.558;2023-02-22T00:18:43;100338.78;;;5.45;100.00
44457;BME280;30159;49.316;8.558;2023-02-22T00:21:10;100305.09;;;5.27;100.00
44457;BME280;30159;49.316;8.558;2023-02-22T00:23:40;100327.00;;;5.46;100.00
44457;BME280;30159;49.316;8.558;2023-02-22T00:26:13;100324.00;;;5.43;100.00
44457;BME280;30159;49.316;8.558;2023-02-22T00:28:43;100313.94;;;5.50;100.00
44457;BME280;30159;49.316;8.558;2023-02-22T00:31:10;100200.63;;;4.73;100.00
44457;BME280;30159;49.316;8.558;2023-02-22T00:33:38;100316.00;;;5.43;100.00
44457;BME280;30159;49.316;8.558;2023-02-22T00:36:05;100318.19;;;5.46;100.00
44457;BME280;30159;49.316;8.558;2023-02-22T00:38:31;100306.69;;;5.45;100.00
44457;BME280;30159;49.316;8.558;2023-02-22T00:40:58;100313.13;;;5.49;100.00
44457;BME280;30159;49.316;8.558;2023-02-22T00:43:26;100261.81;;;5.31;100.00
44457;BME280;30159;49.316;8.558;2023-02-22T00:45:52;100308.75;;;5.60;100.00
44457;BME280;30159;49.316;8.558;2023-02-22T00:48:19;100309.88;;;5.64;100.00
44457;BME280;30159;49.316;8.558;2023-02-22T00:50:45;100312.03;;;5.67;100.00
44457;BME280;30159;49.316;8.558;2023-02-22T00:53:13;100291.38;;;5.63;100.00
44457;BME280;30159;49.316;8.558;2023-02-22T00:55:40;100307.63;;;5.78;100.00
44457;BME280;30159;49.316;8.558;2023-02-22T00:58:07;100255.09;;;5.50;100.00
44457;BME280;30159;49.316;8.558;2023-02-22T01:00:36;100250.25;;;5.47;100.00
44457;BME280;30159;49.316;8.558;2023-02-22T01:03:03;100311.97;;;5.84;100.00
44457;BME280;30159;49.316;8.558;2023-02-22T01:05:30;100285.84;;;5.69;100.00
44457;BME280;30159;49.316;8.558;2023-02-22T01:07:58;100313.22;;;5.77;100.00
44457;BME280;30159;49.316;8.558;2023-02-22T01:10:27;100307.31;;;5.75;100.00
44457;BME280;30159;49.316;8.558;2023-02-22T01:12:55;100287.63;;;5.64;100.00
44457;BME280;30159;49.316;8.558;2023-02-22T01:15:24;100298.94;;;5.71;100.00
44457;BME280;30159;49.316;8.558;2023-02-22T01:17:54;100280.34;;;5.59;100.00
44457;BME280;30159;49.316;8.558;2023-02-22T01:20:23;100293.31;;;5.67;100.00
44457;BME280;30159;49.316;8.558;2023-02-22T01:22:52;100301.09;;;5.69;100.00
44457;BME280;30159;49.316;8.558;2023-02-22T01:25:20;100292.78;;;5.70;100.00
44457;BME280;30159;49.316;8.558;2023-02-22T01:27:47;100296.38;;;5.76;100.00
44457;BME280;30159;49.316;8.558;2023-02-22T01:30:15;100270.28;;;5.66;100.00
44457;BME280;30159;49.316;8.558;2023-02-22T01:32:42;100289.13;;;5.77;100.00
44457;BME280;30159;49.316;8.558;2023-02-22T01:35:13;100282.72;;;5.78;100.00
44457;BME280;30159;49.316;8.558;2023-02-22T01:37:40;100193.66;;;5.11;100.00
44457;BME280;30159;49.316;8.558;2023-02-22T01:40:16;100278.84;;;5.68;100.00
44457;BME280;30159;49.316;8.558;2023-02-22T01:42:46;100289.56;;;5.68;100.00
44457;BME280;30159;49.316;8.558;2023-02-22T01:48:21;100278.97;;;5.57;100.00
44457;BME280;30159;49.316;8.558;2023-02-22T01:50:54;100279.25;;;5.55;100.00
44457;BME280;30159;49.316;8.558;2023-02-22T01:53:24;100275.41;;;5.46;100.00
44457;BME280;30159;49.316;8.558;2023-02-22T01:55:54;100275.44;;;5.51;100.00
44457;BME280;30159;49.316;8.558;2023-02-22T01:58:22;100278.13;;;5.51;100.00
44457;BME280;30159;49.316;8.558;2023-02-22T02:00:49;100261.31;;;5.34;100.00
44457;BME280;30159;49.316;8.558;2023-02-22T02:03:18;100265.69;;;5.40;100.00
44457;BME280;30159;49.316;8.558;2023-02-22T02:05:47;100265.09;;;5.38;100.00
44457;BME280;30159;49.316;8.558;2023-02-22T02:08:23;100115.78;;;4.41;100.00
44457;BME280;30159;49.316;8.558;2023-02-22T02:10:52;100262.69;;;5.36;100.00
44457;BME280;30159;49.316;8.558;2023-02-22T02:13:20;100262.06;;;5.29;100.00
44457;BME280;30159;49.316;8.558;2023-02-22T02:15:46;100259.88;;;5.26;100.00
44457;BME280;30159;49.316;8.558;2023-02-22T02:18:14;100214.34;;;4.99;100.00
44457;BME280;30159;49.316;8.558;2023-02-22T02:20:49;100262.06;;;5.29;100.00
44457;BME280;30159;49.316;8.558;2023-02-22T02:32:47;100247.50;;;5.42;100.00
44457;BME280;30159;49.316;8.558;2023-02-22T02:35:25;100241.38;;;5.41;100.00
44457;BME280;30159;49.316;8.558;2023-02-22T02:38:00;100241.38;;;5.41;100.00
44457;BME280;30159;49.316;8.558;2023-02-22T02:40:32;100241.59;;;5.40;100.00
44457;BME280;30159;49.316;8.558;2023-02-22T02:43:05;100241.59;;;5.40;100.00
44457;BME280;30159;49.316;8.558;2023-02-22T02:45:35;100227.38;;;5.34;100.00
44457;BME280;30159;49.316;8.558;2023-02-22T02:48:08;100246.66;;;5.36;100.00
44457;BME280;30159;49.316;8.558;2023-02-22T02:50:40;100202.41;;;5.06;100.00
44457;BME280;30159;49.316;8.558;2023-02-22T02:53:09;100233.41;;;5.24;100.00
44457;BME280;30159;49.316;8.558;2023-02-22T02:55:36;100230.59;;;5.14;100.00
44457;BME280;30159;49.316;8.558;2023-02-22T02:58:03;100165.22;;;4.44;100.00
44457;BME280;30159;49.316;8.558;2023-02-22T03:00:32;100239.22;;;4.82;100.00
44457;BME280;30159;49.316;8.558;2023-02-22T03:03:22;100234.88;;;4.76;100.00
44457;BME280;30159;49.316;8.558;2023-02-22T03:06:04;100228.72;;;4.76;100.00
44457;BME280;30159;49.316;8.558;2023-02-22T03:08:40;100234.25;;;4.69;100.00
44457;BME280;30159;49.316;8.558;2023-02-22T03:11:10;100224.34;;;4.70;100.00
44457;BME280;30159;49.316;8.558;2023-02-22T03:13:48;100229.94;;;4.68;100.00
44457;BME280;30159;49.316;8.558;2023-02-22T03:16:20;100226.88;;;4.59;100.00
44457;BME280;30159;49.316;8.558;2023-02-22T03:18:55;100221.94;;;4.51;100.00
44457;BME280;30159;49.316;8.558;2023-02-22T03:21:32;100214.16;;;4.50;100.00
44457;BME280;30159;49.316;8.558;2023-02-22T03:24:05;100221.13;;;4.51;100.00
44457;BME280;30159;49.316;8.558;2023-02-22T03:26:37;100228.56;;;4.49;100.00
44457;BME280;30159;49.316;8.558;2023-02-22T03:29:06;100172.41;;;4.10;100.00
44457;BME280;30159;49.316;8.558;2023-02-22T03:31:39;100182.63;;;4.13;100.00
44457;BME280;30159;49.316;8.558;2023-02-22T03:34:11;100152.34;;;3.90;100.00
44457;BME280;30159;49.316;8.558;2023-02-22T03:36:42;100213.44;;;4.37;100.00
44457;BME280;30159;49.316;8.558;2023-02-22T03:39:13;100223.63;;;4.40;100.00
44457;BME280;30159;49.316;8.558;2023-02-22T03:41:43;100193.53;;;4.28;100.00
44457;BME280;30159;49.316;8.558;2023-02-22T03:44:15;100212.22;;;4.45;100.00
44457;BME280;30159;49.316;8.558;2023-02-22T03:46:43;100211.91;;;4.41;100.00
44457;BME280;30159;49.316;8.558;2023-02-22T03:49:18;100215.16;;;4.43;100.00
44457;BME280;30159;49.316;8.558;2023-02-22T03:51:49;100212.56;;;4.49;100.00
44457;BME280;30159;49.316;8.558;2023-02-22T03:54:16;100213.69;;;4.53;100.00
44457;BME280;30159;49.316;8.558;2023-02-22T03:56:46;100215.13;;;4.60;100.00
44457;BME280;30159;49.316;8.558;2023-02-22T03:59:15;100212.88;;;4.69;100.00
44457;BME280;30159;49.316;8.558;2023-02-22T04:01:41;100211.88;;;4.75;100.00
44457;BME280;30159;49.316;8.558;2023-02-22T04:04:08;100213.50;;;4.76;100.00
44457;BME280;30159;49.316;8.558;2023-02-22T04:06:36;100198.13;;;4.67;100.00
44457;BME280;30159;49.316;8.558;2023-02-22T04:09:03;100216.81;;;4.83;100.00
44457;BME280;30159;49.316;8.558;2023-02-22T04:11:29;100214.13;;;4.83;100.00
44457;BME280;30159;49.316;8.558;2023-02-22T04:13:56;100218.50;;;4.90;100.00
44457;BME280;30159;49.316;8.558;2023-02-22T04:16:22;100220.91;;;4.91;100.00
44457;BME280;30159;49.316;8.558;2023-02-22T04:18:49;100220.75;;;4.98;100.00
44457;BME280;30159;49.316;8.558;2023-02-22T04:21:15;100219.13;;;4.97;100.00
44457;BME280;30159;49.316;8.558;2023-02-22T04:23:43;100216.25;;;5.03;100.00
44457;BME280;30159;49.316;8.558;2023-02-22T04:26:10;100223.00;;;5.06;100.00
44457;BME280;30159;49.316;8.558;2023-02-22T04:28:36;100216.94;;;4.94;100.00
44457;BME280;30159;49.316;8.558;2023-02-22T04:31:03;100226.16;;;5.03;100.00
44457;BME280;30159;49.316;8.558;2023-02-22T04:33:29;100221.44;;;5.10;100.00
44457;BME280;30159;49.316;8.558;2023-02-22T04:35:56;100206.06;;;5.00;100.00
44457;BME280;30159;49.316;8.558;2023-02-22T04:38:23;100218.75;;;5.10;100.00
44457;BME280;30159;49.316;8.558;2023-02-22T04:40:52;100213.75;;;5.14;100.00
44457;BME280;30159;49.316;8.558;2023-02-22T04:43:20;100215.34;;;5.15;100.00
44457;BME280;30159;49.316;8.558;2023-02-22T04:45:46;100222.56;;;5.14;100.00
44457;BME280;30159;49.316;8.558;2023-02-22T04:48:13;100217.28;;;5.19;100.00
44457;BME280;30159;49.316;8.558;2023-02-22T04:50:39;100216.97;;;5.16;100.00
44457;BME280;30159;49.316;8.558;2023-02-22T04:53:06;100051.75;;;4.08;100.00
44457;BME280;30159;49.316;8.558;2023-02-22T04:55:32;100213.13;;;5.06;100.00
44457;BME280;30159;49.316;8.558;2023-02-22T04:58:01;100193.38;;;4.91;100.00
44457;BME280;30159;49.316;8.558;2023-02-22T05:00:27;100215.41;;;4.98;100.00
44457;BME280;30159;49.316;8.558;2023-02-22T05:02:54;100210.56;;;4.95;100.00
44457;BME280;30159;49.316;8.558;2023-02-22T05:05:21;100206.50;;;4.92;100.00
44457;BME280;30159;49.316;8.558;2023-02-22T05:07:48;100205.69;;;4.92;100.00
44457;BME280;30159;49.316;8.558;2023-02-22T05:10:16;100207.31;;;4.93;100.00
44457;BME280;30159;49.316;8.558;2023-02-22T05:12:42;100204.00;;;4.85;100.00
44457;BME280;30159;49.316;8.558;2023-02-22T05:15:16;100214.38;;;4.82;100.00
44457;BME280;30159;49.316;8.558;2023-02-22T05:17:43;100210.03;;;4.76;100.00
44457;BME280;30159;49.316;8.558;2023-02-22T05:20:15;100211.72;;;4.65;100.00
44457;BME280;30159;49.316;8.558;2023-02-22T05:22:42;100209.78;;;4.60;100.00
44457;BME280;30159;49.316;8.558;2023-02-22T05:25:09;100210.53;;;4.56;100.00
44457;BME280;30159;49.316;8.558;2023-02-22T05:27:36;100198.47;;;4.53;100.00
44457;BME280;30159;49.316;8.558;2023-02-22T05:30:03;100204.03;;;4.52;100.00
44457;BME280;30159;49.316;8.558;2023-02-22T05:32:31;100207.84;;;4.56;100.00
44457;BME280;30159;49.316;8.558;2023-02-22T05:34:59;100148.81;;;4.18;100.00
44457;BME280;30159;49.316;8.558;2023-02-22T05:37:25;100196.88;;;4.52;100.00
44457;BME280;30159;49.316;8.558;2023-02-22T05:39:52;100198.13;;;4.50;100.00
44457;BME280;30159;49.316;8.558;2023-02-22T05:42:19;100201.38;;;4.52;100.00
44457;BME280;30159;49.316;8.558;2023-02-22T05:44:47;100199.28;;;4.54;100.00
44457;BME280;30159;49.316;8.558;2023-02-22T05:47:14;100200.06;;;4.54;100.00
44457;BME280;30159;49.316;8.558;2023-02-22T05:49:42;100209.72;;;4.55;100.00
44457;BME280;30159;49.316;8.558;2023-02-22T05:52:08;100204.94;;;4.57;100.00
44457;BME280;30159;49.316;8.558;2023-02-22T05:54:35;100052.66;;;3.63;100.00
44457;BME280;30159;49.316;8.558;2023-02-22T05:57:01;100198.78;;;4.57;100.00
44457;BME280;30159;49.316;8.558;2023-02-22T05:59:28;100202.00;;;4.59;100.00
44457;BME280;30159;49.316;8.558;2023-02-22T06:01:54;100171.94;;;4.47;100.00
44457;BME280;30159;49.316;8.558;2023-02-22T06:04:21;100202.91;;;4.64;100.00
44457;BME280;30159;49.316;8.558;2023-02-22T06:06:49;100184.88;;;4.55;100.00
44457;BME280;30159;49.316;8.558;2023-02-22T06:09:15;100210.19;;;4.69;100.00
44457;BME280;30159;49.316;8.558;2023-02-22T06:11:42;100203.47;;;4.67;100.00
44457;BME280;30159;49.316;8.558;2023-02-22T06:14:08;100206.16;;;4.67;100.00
44457;BME280;30159;49.316;8.558;2023-02-22T06:16:35;100201.91;;;4.71;100.00
44457;BME280;30159;49.316;8.558;2023-02-22T06:19:01;100207.53;;;4.69;100.00
44457;BME280;30159;49.316;8.558;2023-02-22T06:21:28;100209.63;;;4.67;100.00
44457;BME280;30159;49.316;8.558;2023-02-22T06:23:56;100212.88;;;4.69;100.00
44457;BME280;30159;49.316;8.558;2023-02-22T06:26:22;100224.59;;;4.68;100.00
44457;BME280;30159;49.316;8.558;2023-02-22T06:28:49;100226.78;;;4.71;100.00
44457;BME280;30159;49.316;8.558;2023-02-22T06:31:15;100224.13;;;4.71;100.00
44457;BME280;30159;49.316;8.558;2023-02-22T06:33:42;100226.28;;;4.74;100.00
44457;BME280;30159;49.316;8.558;2023-02-22T06:36:08;100209.78;;;4.60;100.00
44457;BME280;30159;49.316;8.558;2023-02-22T06:38:35;100227.91;;;4.75;100.00
44457;BME280;30159;49.316;8.558;2023-02-22T06:41:03;100235.50;;;4.83;100.00
44457;BME280;30159;49.316;8.558;2023-02-22T06:43:30;100235.28;;;4.85;100.00
44457;BME280;30159;49.316;8.558;2023-02-22T06:45:56;100214.06;;;4.78;100.00
44457;BME280;30159;49.316;8.558;2023-02-22T06:48:23;100235.25;;;5.02;100.00
44457;BME280;30159;49.316;8.558;2023-02-22T06:50:49;100235.25;;;5.02;100.00
44457;BME280;30159;49.316;8.558;2023-02-22T06:53:16;100237.56;;;5.15;100.00
44457;BME280;30159;49.316;8.558;2023-02-22T06:55:42;100216.59;;;5.07;100.00
44457;BME280;30159;49.316;8.558;2023-02-22T06:58:10;100251.75;;;5.38;100.00
44457;BME280;30159;49.316;8.558;2023-02-22T07:00:37;100245.22;;;5.51;100.00
44457;BME280;30159;49.316;8.558;2023-02-22T07:03:03;100250.38;;;5.57;100.00
44457;BME280;30159;49.316;8.558;2023-02-22T07:05:30;100243.03;;;5.69;100.00
44457;BME280;30159;49.316;8.558;2023-02-22T07:08:02;100242.09;;;5.81;100.00
44457;BME280;30159;49.316;8.558;2023-02-22T07:10:30;100244.97;;;6.01;100.00
44457;BME280;30159;49.316;8.558;2023-02-22T07:12:57;100244.91;;;6.18;100.00
44457;BME280;30159;49.316;8.558;2023-02-22T07:15:26;100245.94;;;6.44;100.00
44457;BME280;30159;49.316;8.558;2023-02-22T07:17:54;100250.31;;;6.56;100.00
44457;BME280;30159;49.316;8.558;2023-02-22T07:20:21;100201.66;;;6.37;100.00
44457;BME280;30159;49.316;8.558;2023-02-22T07:22:49;100246.13;;;6.70;100.00
44457;BME280;30159;49.316;8.558;2023-02-22T07:25:16;100245.59;;;6.73;100.00
44457;BME280;30159;49.316;8.558;2023-02-22T07:27:42;100245.81;;;6.66;100.00
44457;BME280;30159;49.316;8.558;2023-02-22T07:30:17;100247.72;;;6.71;100.00
44457;BME280;30159;49.316;8.558;2023-02-22T07:32:45;100250.16;;;6.72;100.00
44457;BME280;30159;49.316;8.558;2023-02-22T07:35:16;100251.06;;;6.51;100.00
44457;BME280;30159;49.316;8.558;2023-02-22T07:37:43;100209.22;;;6.12;100.00
44457;BME280;30159;49.316;8.558;2023-02-22T07:40:10;100250.72;;;6.42;100.00
44457;BME280;30159;49.316;8.558;2023-02-22T07:42:52;100238.78;;;6.55;100.00
44457;BME280;30159;49.316;8.558;2023-02-22T07:45:20;100248.88;;;6.85;100.00
44457;BME280;30159;49.316;8.558;2023-02-22T07:47:48;100224.75;;;6.85;100.00
44457;BME280;30159;49.316;8.558;2023-02-22T07:50:15;100245.50;;;7.00;100.00
44457;BME280;30159;49.316;8.558;2023-02-22T07:52:44;100250.63;;;7.02;100.00
44457;BME280;30159;49.316;8.558;2023-02-22T07:55:13;100242.88;;;7.10;100.00
44457;BME280;30159;49.316;8.558;2023-02-22T07:57:41;100243.19;;;7.19;100.00
44457;BME280;30159;49.316;8.558;2023-02-22T08:00:08;100234.63;;;7.22;100.00
44457;BME280;30159;49.316;8.558;2023-02-22T08:02:35;100244.81;;;7.20;100.00
44457;BME280;30159;49.316;8.558;2023-02-22T08:05:04;100240.84;;;7.28;100.00
44457;BME280;30159;49.316;8.558;2023-02-22T08:07:31;100233.06;;;7.31;100.00
44457;BME280;30159;49.316;8.558;2023-02-22T08:09:57;100239.03;;;7.44;100.00
44457;BME280;30159;49.316;8.558;2023-02-22T08:12:24;100232.06;;;7.48;100.00
44457;BME280;30159;49.316;8.558;2023-02-22T08:14:50;100233.41;;;7.50;100.00
44457;BME280;30159;49.316;8.558;2023-02-22T08:17:17;100241.44;;;7.45;100.00
44457;BME280;30159;49.316;8.558;2023-02-22T08:19:43;100230.78;;;7.66;100.00
44457;BME280;30159;49.316;8.558;2023-02-22T08:22:11;100182.09;;;7.31;100.00
44457;BME280;30159;49.316;8.558;2023-02-22T08:24:38;100213.88;;;7.65;100.00
44457;BME280;30159;49.316;8.558;2023-02-22T08:27:05;100241.59;;;7.96;100.00
44457;BME280;30159;49.316;8.558;2023-02-22T08:29:31;100241.34;;;8.03;100.00
44457;BME280;30159;49.316;8.558;2023-02-22T08:31:58;100240.81;;;8.06;100.00
44457;BME280;30159;49.316;8.558;2023-02-22T08:34:26;100245.13;;;8.12;100.00
44457;BME280;30159;49.316;8.558;2023-02-22T08:36:53;100244.06;;;8.29;100.00
44457;BME280;30159;49.316;8.558;2023-02-22T08:39:21;100242.19;;;8.39;100.00
44457;BME280;30159;49.316;8.558;2023-02-22T08:41:47;100241.38;;;8.34;100.00
44457;BME280;30159;49.316;8.558;2023-02-22T08:44:14;100241.38;;;8.39;100.00
44457;BME280;30159;49.316;8.558;2023-02-22T08:46:40;100240.31;;;8.50;100.00
44457;BME280;30159;49.316;8.558;2023-02-22T08:49:07;100184.97;;;8.18;100.00
44457;BME280;30159;49.316;8.558;2023-02-22T08:51:34;100240.31;;;8.50;100.00
44457;BME280;30159;49.316;8.558;2023-02-22T08:54:01;100241.13;;;8.51;100.00
44457;BME280;30159;49.316;8.558;2023-02-22T08:56:29;100234.41;;;8.63;100.00
44457;BME280;30159;49.316;8.558;2023-02-22T08:58:57;100236.53;;;8.72;100.00
44457;BME280;30159;49.316;8.558;2023-02-22T09:01:24;100237.59;;;8.81;100.00
44457;BME280;30159;49.316;8.558;2023-02-22T09:03:50;100237.06;;;8.89;100.00
44457;BME280;30159;49.316;8.558;2023-02-22T09:06:17;100235.69;;;8.97;100.00
44457;BME280;30159;49.316;8.558;2023-02-22T09:08:44;100238.13;;;9.03;99.25
44457;BME280;30159;49.316;8.558;2023-02-22T09:11:10;100239.16;;;9.18;98.79
44457;BME280;30159;49.316;8.558;2023-02-22T09:13:38;100179.72;;;9.04;97.96
44457;BME280;30159;49.316;8.558;2023-02-22T09:16:05;100186.44;;;9.12;96.81
44457;BME280;30159;49.316;8.558;2023-02-22T09:18:32;100220.50;;;9.42;95.88
44457;BME280;30159;49.316;8.558;2023-02-22T09:20:58;100217.75;;;9.52;95.96
44457;BME280;30159;49.316;8.558;2023-02-22T09:23:25;100224.22;;;9.56;95.40
44457;BME280;30159;49.316;8.558;2023-02-22T09:25:52;100226.84;;;9.66;96.27
44457;BME280;30159;49.316;8.558;2023-02-22T09:28:18;100222.63;;;9.50;92.10
44457;BME280;30159;49.316;8.558;2023-02-22T09:30:46;100216.41;;;9.55;92.33
44457;BME280;30159;49.316;8.558;2023-02-22T09:33:15;100221.97;;;9.68;92.58
44457;BME280;30159;49.316;8.558;2023-02-22T09:35:43;100222.75;;;9.74;92.96
44457;BME280;30159;49.316;8.558;2023-02-22T09:38:11;100216.72;;;9.98;91.75
44457;BME280;30159;49.316;8.558;2023-02-22T09:40:40;100212.81;;;10.14;90.30
44457;BME280;30159;49.316;8.558;2023-02-22T09:43:20;100172.53;;;9.94;88.04
44457;BME280;30159;49.316;8.558;2023-02-22T09:46:03;100112.50;;;9.48;88.02
44457;BME280;30159;49.316;8.558;2023-02-22T09:48:43;100209.28;;;10.19;88.69
44457;BME280;30159;49.316;8.558;2023-02-22T09:51:14;100216.31;;;10.54;87.34
44457;BME280;30159;49.316;8.558;2023-02-22T09:53:45;100206.06;;;10.80;85.51
44457;BME280;30159;49.316;8.558;2023-02-22T09:56:15;100202.84;;;11.02;85.48
44457;BME280;30159;49.316;8.558;2023-02-22T09:58:44;100181.81;;;11.23;83.82
44457;BME280;30159;49.316;8.558;2023-02-22T10:01:23;100200.91;;;11.32;82.17
44457;BME280;30159;49.316;8.558;2023-02-22T10:03:57;100196.88;;;11.29;83.47
44457;BME280;30159;49.316;8.558;2023-02-22T10:06:27;100197.16;;;11.52;81.63
44457;BME280;30159;49.316;8.558;2023-02-22T10:08:57;100166.41;;;11.67;80.60
44457;BME280;30159;49.316;8.558;2023-02-22T10:11:36;100159.19;;;11.62;78.81
44457;BME280;30159;49.316;8.558;2023-02-22T10:14:25;100185.06;;;11.87;79.16
44457;BME280;30159;49.316;8.558;2023-02-22T10:17:03;100160.66;;;11.92;80.29
44457;BME280;30159;49.316;8.558;2023-02-22T10:19:36;100128.22;;;11.92;78.46
44457;BME280;30159;49.316;8.558;2023-02-22T10:22:26;100172.75;;;12.47;78.42
44457;BME280;30159;49.316;8.558;2023-02-22T10:24:59;100177.00;;;12.67;76.47
44457;BME280;30159;49.316;8.558;2023-02-22T10:27:31;100177.53;;;12.82;76.08
44457;BME280;30159;49.316;8.558;2023-02-22T10:30:05;100127.38;;;12.57;75.98
44457;BME280;30159;49.316;8.558;2023-02-22T10:32:40;100164.28;;;12.95;76.20
44457;BME280;30159;49.316;8.558;2023-02-22T10:35:16;100150.94;;;12.71;76.19
44457;BME280;30159;49.316;8.558;2023-02-22T10:37:45;100168.38;;;12.78;76.47
44457;BME280;30159;49.316;8.558;2023-02-22T10:40:15;100173.50;;;12.66;75.98
44457;BME280;30159;49.316;8.558;2023-02-22T10:42:44;100165.38;;;12.66;76.23
44457;BME280;30159;49.316;8.558;2023-02-22T10:45:20;100167.09;;;12.76;76.30
44457;BME280;30159;49.316;8.558;2023-02-22T10:47:49;100173.09;;;12.86;76.07
44457;BME280;30159;49.316;8.558;2023-02-22T10:50:17;100169.81;;;12.90;76.57
44457;BME280;30159;49.316;8.558;2023-02-22T10:52:45;100159.97;;;12.80;77.09
44457;BME280;30159;49.316;8.558;2023-02-22T10:55:13;100168.50;;;12.27;77.04
44457;BME280;30159;49.316;8.558;2023-02-22T10:57:41;100171.81;;;12.37;78.98
44457;BME280;30159;49.316;8.558;2023-02-22T11:00:15;100166.75;;;12.50;79.29
44457;BME280;30159;49.316;8.558;2023-02-22T11:02:51;100171.84;;;12.51;79.18
44457;BME280;30159;49.316;8.558;2023-02-22T11:05:28;100167.25;;;12.52;79.86
44457;BME280;30159;49.316;8.558;2023-02-22T11:08:13;100171.94;;;12.46;78.71
44457;BME280;30159;49.316;8.558;2023-02-22T11:10:40;100159.03;;;12.57;79.07
44457;BME280;30159;49.316;8.558;2023-02-22T11:13:16;100100.81;;;12.46;77.89
44457;BME280;30159;49.316;8.558;2023-02-22T11:15:43;100172.63;;;12.84;77.56
44457;BME280;30159;49.316;8.558;2023-02-22T11:18:21;100157.34;;;13.02;77.83
44457;BME280;30159;49.316;8.558;2023-02-22T11:20:58;100058.44;;;12.55;77.62
44457;BME280;30159;49.316;8.558;2023-02-22T11:23:25;100130.88;;;13.13;76.69
44457;BME280;30159;49.316;8.558;2023-02-22T11:26:00;100116.63;;;13.21;76.95
44457;BME280;30159;49.316;8.558;2023-02-22T11:28:28;100140.50;;;13.69;76.63
44457;BME280;30159;49.316;8.558;2023-02-22T11:30:58;100132.13;;;13.80;78.10
44457;BME280;30159;49.316;8.558;2023-02-22T11:33:36;100124.63;;;13.99;77.55
44457;BME280;30159;49.316;8.558;2023-02-22T11:36:04;100127.03;;;13.78;76.13
44457;BME280;30159;49.316;8.558;2023-02-22T11:38:34;100105.38;;;13.42;76.01
44457;BME280;30159;49.316;8.558;2023-02-22T11:41:13;100119.19;;;13.77;76.33
44457;BME280;30159;49.316;8.558;2023-02-22T11:43:40;100117.28;;;13.77;76.42
44457;BME280;30159;49.316;8.558;2023-02-22T11:46:11;100113.56;;;13.87;77.03
44457;BME280;30159;49.316;8.558;2023-02-22T11:48:41;100031.69;;;13.31;77.80
44457;BME280;30159;49.316;8.558;2023-02-22T11:51:15;100105.16;;;13.97;78.50
44457;BME280;30159;49.316;8.558;2023-02-22T11:56:35;100082.13;;;13.86;76.67
44457;BME280;30159;49.316;8.558;2023-02-22T11:59:11;100098.94;;;13.97;78.29
44457;BME280;30159;49.316;8.558;2023-02-22T12:01:47;100100.22;;;13.99;77.21
44457;BME280;30159;49.316;8.558;2023-02-22T12:04:48;100086.03;;;14.02;78.28
44457;BME280;30159;49.316;8.558;2023-02-22T12:07:34;100090.25;;;14.08;77.87
44457;BME280;30159;49.316;8.558;2023-02-22T12:10:14;100018.47;;;13.61;79.11
44457;BME280;30159;49.316;8.558;2023-02-22T12:12:56;100092.63;;;14.10;79.23
44457;BME280;30159;49.316;8.558;2023-02-22T12:15:30;100087.56;;;14.17;77.83
44457;BME280;30159;49.316;8.558;2023-02-22T12:18:08;100081.97;;;14.13;78.61
44457;BME280;30159;49.316;8.558;2023-02-22T12:20:45;100081.69;;;14.24;78.74
44457;BME280;30159;49.316;8.558;2023-02-22T12:23:17;100078.88;;;14.38;78.79
44457;BME280;30159;49.316;8.558;2023-02-22T12:25:56;100079.91;;;14.50;77.59
44457;BME280;30159;49.316;8.558;2023-02-22T12:28:29;100076.41;;;14.50;77.90
44457;BME280;30159;49.316;8.558;2023-02-22T12:31:06;100077.13;;;14.64;77.49
44457;BME280;30159;49.316;8.558;2023-02-22T12:33:43;100069.44;;;14.58;77.30
44457;BME280;30159;49.316;8.558;2023-02-22T12:36:14;100077.75;;;14.70;77.30
44457;BME280;30159;49.316;8.558;2023-02-22T12:38:47;100075.56;;;14.89;76.58
44457;BME280;30159;49.316;8.558;2023-02-22T12:41:21;100061.34;;;14.84;75.32
44457;BME280;30159;49.316;8.558;2023-02-22T12:43:54;100072.09;;;14.98;74.51
44457;BME280;30159;49.316;8.558;2023-02-22T12:46:27;100072.69;;;14.86;75.47
44457;BME280;30159;49.316;8.558;2023-02-22T12:49:02;100065.03;;;14.88;75.97
44457;BME280;30159;49.316;8.558;2023-02-22T12:51:39;100056.22;;;14.82;75.71
44457;BME280;30159;49.316;8.558;2023-02-22T12:54:13;100061.56;;;15.05;76.40
44457;BME280;30159;49.316;8.558;2023-02-22T12:56:49;100023.50;;;14.96;76.89
44457;BME280;30159;49.316;8.558;2023-02-22T12:59:21;100047.34;;;15.25;74.89
44457;BME280;30159;49.316;8.558;2023-02-22T13:01:53;100051.34;;;15.36;73.25
44457;BME280;30159;49.316;8.558;2023-02-22T13:04:22;100062.06;;;15.15;73.88
44457;BME280;30159;49.316;8.558;2023-02-22T13:07:06;100049.59;;;15.23;73.19
44457;BME280;30159;49.316;8.558;2023-02-22T13:09:59;100047.34;;;15.25;71.59
44457;BME280;30159;49.316;8.558;2023-02-22T13:12:37;100047.84;;;15.27;71.97
44457;BME280;30159;49.316;8.558;2023-02-22T13:15:08;100009.00;;;15.09;70.70
44457;BME280;30159;49.316;8.558;2023-02-22T13:17:45;100048.63;;;15.45;71.57
44457;BME280;30159;49.316;8.558;2023-02-22T13:20:20;100031.19;;;15.37;70.24